Time;durP1;ratioP1;P1;durP2;ratioP2;P2;SDS_P1;SDS_P2;PMS_P1;PMS_P2;Temp;Humidity;BMP_temperature;BMP_pressure;BME280_temperature;BME280_humidity;BME280_pressure;Samples;Min_cycle;Max_cycle;Signal;HPM_P1;HPM_P2
2022/03/16 00:00:47;;;;;;;15.45;12.82;;;11.60;95.70;;;;;;5055093;28;20231;-64
2022/03/16 00:03:15;;;;;;;19.05;14.27;;;11.60;95.90;;;;;;5046893;28;20231;-64
2022/03/16 00:05:42;;;;;;;17.80;13.25;;;11.50;96.40;;;;;;5054718;28;20225;-64
2022/03/16 00:08:08;;;;;;;15.57;12.25;;;11.50;96.20;;;;;;5054861;28;20694;-64
2022/03/16 00:10:35;;;;;;;17.85;12.95;;;11.50;96.30;;;;;;5054504;28;20225;-64
2022/03/16 00:13:02;;;;;;;21.48;15.95;;;11.50;96.50;;;;;;5054836;28;20239;-64
2022/03/16 00:15:29;;;;;;;19.40;15.25;;;11.50;96.70;;;;;;5055052;28;20257;-67
2022/03/16 00:17:56;;;;;;;17.65;14.40;;;11.50;96.80;;;;;;5060286;28;20248;-64
2022/03/16 00:20:24;;;;;;;18.67;14.68;;;11.50;97.00;;;;;;5054372;28;20244;-64
2022/03/16 00:22:51;;;;;;;19.50;13.73;;;11.50;97.10;;;;;;5047986;28;20569;-64
2022/03/16 00:25:17;;;;;;;21.55;14.77;;;11.50;97.20;;;;;;5052773;28;20580;-64
2022/03/16 00:27:45;;;;;;;16.33;13.98;;;11.50;97.30;;;;;;5053908;28;20232;-64
2022/03/16 00:30:13;;;;;;;20.27;14.68;;;11.50;97.40;;;;;;5053970;28;20225;-64
2022/03/16 00:32:39;;;;;;;19.88;13.80;;;11.50;97.50;;;;;;5054368;28;20225;-64
2022/03/16 00:35:07;;;;;;;20.20;15.95;;;11.40;97.60;;;;;;5054210;28;20569;-65
2022/03/16 00:37:35;;;;;;;17.75;14.40;;;11.40;97.80;;;;;;5054755;28;20240;-65
2022/03/16 00:40:02;;;;;;;19.98;15.02;;;11.30;97.90;;;;;;5054515;28;20229;-64
2022/03/16 00:42:29;;;;;;;25.63;16.80;;;11.30;98.00;;;;;;5054206;28;20217;-64
2022/03/16 00:44:56;;;;;;;22.75;15.38;;;11.30;98.10;;;;;;5053831;28;20221;-65
2022/03/16 00:47:22;;;;;;;18.60;15.65;;;11.30;98.30;;;;;;5053376;28;20251;-66
2022/03/16 00:49:49;;;;;;;19.13;14.55;;;11.30;98.50;;;;;;5053762;28;20539;-64
2022/03/16 00:52:16;;;;;;;19.17;13.18;;;11.20;98.60;;;;;;5053335;28;20229;-64
2022/03/16 00:54:49;;;;;;;21.35;14.25;;;11.20;98.70;;;;;;5053770;28;20235;-63
2022/03/16 00:57:16;;;;;;;20.85;15.52;;;11.20;98.80;;;;;;5050562;28;20326;-64
2022/03/16 00:59:43;;;;;;;18.48;14.23;;;11.20;98.90;;;;;;5051435;28;20221;-64
2022/03/16 01:02:09;;;;;;;18.55;15.13;;;11.10;99.00;;;;;;5052940;28;20244;-64
2022/03/16 01:04:36;;;;;;;20.15;14.65;;;11.10;99.10;;;;;;5054007;28;20599;-64
2022/03/16 01:07:03;;;;;;;18.50;13.27;;;11.10;99.40;;;;;;5052731;28;20385;-64
2022/03/16 01:09:30;;;;;;;19.35;14.27;;;11.10;99.60;;;;;;5053275;28;20228;-64
2022/03/16 01:11:58;;;;;;;18.25;15.50;;;11.00;99.60;;;;;;5053934;28;20225;-64
2022/03/16 01:14:25;;;;;;;15.90;14.13;;;11.00;99.70;;;;;;5053603;28;20225;-64
2022/03/16 01:16:52;;;;;;;17.63;14.15;;;11.00;99.90;;;;;;5053906;28;20233;-64
2022/03/16 01:19:19;;;;;;;19.50;13.70;;;11.00;99.90;;;;;;5053346;28;20224;-64
2022/03/16 01:21:45;;;;;;;15.70;13.15;;;10.90;99.90;;;;;;5053694;28;20239;-64
2022/03/16 01:24:12;;;;;;;17.67;13.80;;;10.90;99.90;;;;;;5042682;28;20221;-64
2022/03/16 01:26:39;;;;;;;16.85;13.43;;;10.90;99.90;;;;;;5052970;28;20225;-65
2022/03/16 01:29:08;;;;;;;23.67;15.52;;;10.80;99.90;;;;;;5047750;28;20235;-65
2022/03/16 01:31:35;;;;;;;22.33;15.45;;;10.80;99.90;;;;;;5053064;28;20990;-64
2022/03/16 01:34:02;;;;;;;20.45;14.90;;;10.80;99.90;;;;;;5053684;28;20229;-64
2022/03/16 01:36:29;;;;;;;17.45;14.48;;;10.80;99.90;;;;;;5053055;28;20221;-65
2022/03/16 01:38:56;;;;;;;18.67;15.00;;;10.70;99.90;;;;;;5053523;28;20566;-64
2022/03/16 01:41:23;;;;;;;16.25;14.65;;;10.70;99.90;;;;;;5052810;28;20228;-64
2022/03/16 01:43:53;;;;;;;23.38;17.80;;;10.70;99.90;;;;;;5052909;28;20225;-64
2022/03/16 01:46:22;;;;;;;22.23;16.15;;;10.70;99.90;;;;;;5053016;28;20232;-64
2022/03/16 01:48:48;;;;;;;17.77;14.75;;;10.70;99.90;;;;;;5052672;28;20602;-64
2022/03/16 01:51:15;;;;;;;18.77;14.57;;;10.70;99.90;;;;;;5051144;28;20229;-64
2022/03/16 01:53:42;;;;;;;23.70;17.75;;;10.60;99.90;;;;;;5049590;28;20232;-64
2022/03/16 01:56:09;;;;;;;18.38;15.40;;;10.60;99.90;;;;;;5048002;28;20283;-64
2022/03/16 01:58:39;;;;;;;19.10;14.57;;;10.50;99.90;;;;;;5050885;28;20236;-64
2022/03/16 02:01:05;;;;;;;21.33;16.00;;;10.50;99.90;;;;;;5052902;28;20705;-64
2022/03/16 02:03:34;;;;;;;19.88;13.93;;;10.40;99.90;;;;;;5052253;28;20238;-65
2022/03/16 02:06:00;;;;;;;18.73;14.70;;;10.40;99.90;;;;;;5052855;28;20226;-64
2022/03/16 02:08:29;;;;;;;17.52;14.82;;;10.40;99.90;;;;;;5052372;28;20229;-63
2022/03/16 02:10:56;;;;;;;19.50;13.32;;;10.40;99.90;;;;;;5052632;28;20233;-64
2022/03/16 02:13:22;;;;;;;16.48;14.65;;;10.30;99.90;;;;;;5052380;28;20220;-63
2022/03/16 02:15:49;;;;;;;18.10;13.70;;;10.30;99.90;;;;;;5052885;28;20675;-63
2022/03/16 02:18:16;;;;;;;18.98;13.55;;;10.20;99.90;;;;;;5061476;28;20224;-63
2022/03/16 02:20:50;;;;;;;17.65;14.75;;;10.20;99.90;;;;;;5054713;28;20229;-63
2022/03/16 02:23:18;;;;;;;21.10;14.45;;;10.20;99.90;;;;;;5041806;28;20225;-63
2022/03/16 02:25:50;;;;;;;19.00;14.38;;;10.20;99.90;;;;;;5052018;28;20222;-63
2022/03/16 02:28:17;;;;;;;20.42;15.10;;;10.10;99.90;;;;;;5052134;28;20568;-64
2022/03/16 02:30:44;;;;;;;19.48;13.45;;;10.10;99.90;;;;;;5044355;28;20229;-63
2022/03/16 02:33:11;;;;;;;15.48;12.80;;;10.10;99.90;;;;;;5047766;28;20236;-64
2022/03/16 02:35:38;;;;;;;18.45;13.10;;;10.10;99.90;;;;;;5052349;28;20232;-63
2022/03/16 02:38:05;;;;;;;13.93;12.15;;;10.10;99.90;;;;;;5052415;28;20217;-63
2022/03/16 02:40:33;;;;;;;14.05;12.55;;;10.10;99.90;;;;;;5052210;28;20229;-63
2022/03/16 02:43:00;;;;;;;18.30;13.20;;;10.10;99.90;;;;;;5052544;28;20224;-63
2022/03/16 02:45:27;;;;;;;18.35;13.45;;;10.10;99.90;;;;;;5052416;28;20614;-63
2022/03/16 02:47:54;;;;;;;18.50;13.63;;;10.00;99.90;;;;;;5051182;28;20236;-63
2022/03/16 02:50:21;;;;;;;14.13;12.18;;;10.00;99.90;;;;;;5051330;28;20229;-63
2022/03/16 02:52:48;;;;;;;21.63;14.13;;;10.00;99.90;;;;;;5043402;28;20229;-63
2022/03/16 02:55:15;;;;;;;16.75;14.15;;;10.10;99.90;;;;;;5051661;28;20224;-63
2022/03/16 02:57:44;;;;;;;20.23;14.00;;;10.00;99.90;;;;;;5048587;28;20225;-63
2022/03/16 03:00:14;;;;;;;18.10;13.80;;;10.00;99.90;;;;;;5052291;28;20692;-63
2022/03/16 03:02:41;;;;;;;20.90;14.75;;;10.00;99.90;;;;;;5052058;28;20951;-63
2022/03/16 03:05:08;;;;;;;15.95;11.50;;;10.00;99.90;;;;;;5052125;28;20247;-63
2022/03/16 03:07:35;;;;;;;18.98;13.35;;;9.90;99.90;;;;;;5051820;28;20675;-64
2022/03/16 03:10:02;;;;;;;17.65;13.18;;;10.00;99.90;;;;;;5052192;28;20229;-66
2022/03/16 03:12:34;;;;;;;18.35;13.43;;;9.90;99.90;;;;;;5051796;28;20546;-66
2022/03/16 03:15:03;;;;;;;17.55;13.38;;;9.90;99.90;;;;;;5052313;28;20263;-66
2022/03/16 03:17:30;;;;;;;23.85;14.65;;;9.90;99.90;;;;;;5051540;28;20271;-65
2022/03/16 03:19:58;;;;;;;17.77;14.20;;;9.90;99.90;;;;;;5052109;28;20312;-66
2022/03/16 03:22:27;;;;;;;15.07;11.77;;;9.80;99.90;;;;;;5048072;28;20232;-66
2022/03/16 03:24:55;;;;;;;25.33;17.25;;;9.90;99.90;;;;;;5052397;28;20240;-66
2022/03/16 03:27:22;;;;;;;17.75;13.82;;;9.80;99.90;;;;;;5057021;28;20225;-66
2022/03/16 03:29:49;;;;;;;20.73;14.68;;;9.90;99.90;;;;;;5055151;28;20217;-66
2022/03/16 03:32:18;;;;;;;16.95;13.13;;;9.80;99.90;;;;;;5055165;28;20237;-66
2022/03/16 03:34:47;;;;;;;18.20;13.70;;;9.80;99.90;;;;;;5055261;28;20224;-65
2022/03/16 03:37:15;;;;;;;16.33;13.27;;;9.70;99.90;;;;;;5055838;28;20804;-66
2022/03/16 03:39:42;;;;;;;18.33;13.27;;;9.70;99.90;;;;;;5054916;28;20229;-66
2022/03/16 03:42:10;;;;;;;15.57;12.90;;;9.70;99.90;;;;;;5055518;28;20228;-67
2022/03/16 03:44:37;;;;;;;17.45;14.02;;;9.60;99.90;;;;;;5055494;28;20225;-67
2022/03/16 03:47:06;;;;;;;18.80;13.73;;;9.70;99.90;;;;;;5055705;28;20224;-65
2022/03/16 03:49:34;;;;;;;18.63;14.10;;;9.60;99.90;;;;;;5054108;28;20279;-65
2022/03/16 03:52:01;;;;;;;17.15;12.50;;;9.50;99.90;;;;;;5054510;28;20225;-66
2022/03/16 03:54:29;;;;;;;20.13;14.35;;;9.50;99.90;;;;;;5054988;28;20228;-66
2022/03/16 03:56:56;;;;;;;20.63;13.82;;;9.50;99.90;;;;;;5049480;28;20564;-65
2022/03/16 03:59:23;;;;;;;17.10;14.25;;;9.40;99.90;;;;;;5054964;28;20235;-65
2022/03/16 04:01:52;;;;;;;19.50;15.13;;;9.40;99.90;;;;;;5055387;28;20679;-66
2022/03/16 04:04:20;;;;;;;18.45;14.38;;;9.40;99.90;;;;;;5055103;28;20221;-66
2022/03/16 04:06:48;;;;;;;16.98;14.00;;;9.40;99.90;;;;;;5054872;28;20216;-66
2022/03/16 04:09:15;;;;;;;21.98;13.43;;;9.40;99.90;;;;;;5055278;28;20229;-66
2022/03/16 04:11:42;;;;;;;20.25;15.40;;;9.40;99.90;;;;;;5054694;28;20685;-66
2022/03/16 04:14:10;;;;;;;21.10;14.60;;;9.40;99.90;;;;;;5055040;28;20259;-66
2022/03/16 04:16:37;;;;;;;17.48;14.95;;;9.30;99.90;;;;;;5054664;28;20256;-66
2022/03/16 04:19:03;;;;;;;25.48;16.88;;;9.30;99.90;;;;;;5055260;28;20233;-66
2022/03/16 04:21:30;;;;;;;24.65;17.08;;;9.30;99.90;;;;;;5054508;28;20228;-66
2022/03/16 04:23:59;;;;;;;20.67;15.38;;;9.20;99.90;;;;;;5043292;28;20234;-66
2022/03/16 04:26:25;;;;;;;20.58;15.73;;;9.20;99.90;;;;;;5064773;28;20237;-66
2022/03/16 04:28:52;;;;;;;22.30;15.73;;;9.20;99.90;;;;;;5054559;28;20225;-67
2022/03/16 04:31:21;;;;;;;21.08;15.45;;;9.10;99.90;;;;;;5051507;28;20229;-66
2022/03/16 04:33:48;;;;;;;28.70;15.80;;;9.10;99.90;;;;;;5053975;28;20220;-66
2022/03/16 04:36:17;;;;;;;18.48;13.70;;;9.10;99.90;;;;;;5054832;28;20243;-66
2022/03/16 04:38:43;;;;;;;21.25;14.02;;;9.10;99.90;;;;;;5053791;28;20233;-66
2022/03/16 04:41:11;;;;;;;23.33;16.73;;;9.00;99.90;;;;;;5054621;28;20631;-66
2022/03/16 04:43:38;;;;;;;20.85;15.13;;;9.00;99.90;;;;;;5054205;28;20236;-66
2022/03/16 04:46:05;;;;;;;17.55;14.18;;;9.00;99.90;;;;;;5054485;28;20225;-66
2022/03/16 04:48:32;;;;;;;19.15;14.82;;;9.00;99.90;;;;;;5054084;28;20221;-66
2022/03/16 04:50:59;;;;;;;21.30;16.48;;;8.90;99.90;;;;;;5054178;28;20229;-66
2022/03/16 04:53:25;;;;;;;26.23;15.93;;;8.90;99.90;;;;;;5053600;28;20231;-66
2022/03/16 04:55:52;;;;;;;23.00;16.10;;;8.90;99.90;;;;;;5049739;28;20218;-66
2022/03/16 04:58:20;;;;;;;21.02;14.80;;;8.80;99.90;;;;;;5053215;28;20240;-66
2022/03/16 05:00:47;;;;;;;20.90;16.70;;;8.80;99.90;;;;;;5053849;28;20224;-66
2022/03/16 05:03:14;;;;;;;18.08;15.25;;;8.70;99.90;;;;;;5054038;28;20229;-66
2022/03/16 05:05:41;;;;;;;24.08;15.18;;;8.70;99.90;;;;;;5053689;28;20563;-66
2022/03/16 05:08:08;;;;;;;23.27;15.40;;;8.70;99.90;;;;;;5053980;28;20232;-66
2022/03/16 05:10:34;;;;;;;21.60;16.42;;;8.70;99.90;;;;;;5053554;28;20236;-67
2022/03/16 05:13:01;;;;;;;29.75;15.75;;;8.70;99.90;;;;;;5053958;28;20559;-66
2022/03/16 05:15:29;;;;;;;20.98;16.88;;;8.60;99.90;;;;;;5053837;28;20244;-66
2022/03/16 05:18:00;;;;;;;23.08;16.83;;;8.60;99.90;;;;;;5053988;28;20224;-66
2022/03/16 05:20:27;;;;;;;26.77;17.70;;;8.60;99.90;;;;;;5053449;28;20229;-66
2022/03/16 05:22:55;;;;;;;24.38;16.85;;;8.60;99.90;;;;;;5049187;28;20248;-66
2022/03/16 05:25:24;;;;;;;20.10;15.05;;;8.60;99.90;;;;;;5057239;28;20312;-67
2022/03/16 05:27:54;;;;;;;19.13;15.75;;;8.60;99.90;;;;;;5053193;28;20252;-66
2022/03/16 05:30:26;;;;;;;22.63;16.45;;;8.60;99.90;;;;;;5053347;28;20561;-67
2022/03/16 05:33:00;;;;;;;21.95;17.77;;;8.60;99.90;;;;;;5053097;28;20242;-67
2022/03/16 05:35:27;;;;;;;19.58;15.40;;;8.60;99.90;;;;;;5045975;28;20686;-67
2022/03/16 05:37:54;;;;;;;28.92;18.67;;;8.60;99.90;;;;;;5052696;28;20225;-67
2022/03/16 05:40:21;;;;;;;21.38;16.05;;;8.60;99.90;;;;;;5052454;28;20236;-66
2022/03/16 05:42:49;;;;;;;21.45;15.30;;;8.60;99.90;;;;;;5053147;28;20383;-67
2022/03/16 05:45:16;;;;;;;25.33;17.73;;;8.60;99.90;;;;;;5053499;28;20225;-67
2022/03/16 05:47:42;;;;;;;24.30;16.48;;;8.50;99.90;;;;;;5052510;28;20308;-67
2022/03/16 05:50:14;;;;;;;28.60;17.80;;;8.50;99.90;;;;;;5052569;28;20251;-67
2022/03/16 05:52:43;;;;;;;26.42;18.13;;;8.50;99.90;;;;;;5052864;28;20261;-67
2022/03/16 05:55:13;;;;;;;24.25;17.13;;;8.50;99.90;;;;;;5053660;28;20259;-67
2022/03/16 05:57:40;;;;;;;27.55;17.25;;;8.50;99.90;;;;;;5033486;28;20343;-67
2022/03/16 06:00:08;;;;;;;30.48;17.63;;;8.50;99.90;;;;;;5053133;28;20312;-67
2022/03/16 06:02:35;;;;;;;21.95;16.48;;;8.50;99.90;;;;;;5053000;28;20563;-67
2022/03/16 06:05:04;;;;;;;26.48;18.70;;;8.50;99.90;;;;;;5053203;28;20235;-67
2022/03/16 06:07:33;;;;;;;29.23;20.20;;;8.40;99.90;;;;;;5053004;28;20218;-65
2022/03/16 06:09:59;;;;;;;36.90;25.20;;;8.40;99.90;;;;;;5052847;28;20930;-66
2022/03/16 06:12:26;;;;;;;24.83;18.90;;;8.40;99.90;;;;;;5052964;28;20232;-67
2022/03/16 06:14:53;;;;;;;29.92;21.23;;;8.40;99.90;;;;;;5052615;28;20225;-66
2022/03/16 06:17:20;;;;;;;28.48;19.00;;;8.50;99.90;;;;;;5052998;28;20221;-66
2022/03/16 06:19:47;;;;;;;27.38;19.52;;;8.50;99.90;;;;;;5052722;28;20221;-66
2022/03/16 06:22:14;;;;;;;26.02;19.48;;;8.50;99.90;;;;;;5050626;28;20224;-66
2022/03/16 06:24:42;;;;;;;26.60;18.35;;;8.50;99.90;;;;;;5032564;28;20244;-66
2022/03/16 06:27:09;;;;;;;23.17;19.27;;;8.50;99.90;;;;;;5032874;28;20224;-67
2022/03/16 06:29:36;;;;;;;27.40;19.80;;;8.50;99.90;;;;;;5032853;28;20229;-66
2022/03/16 06:32:03;;;;;;;28.40;18.60;;;8.50;99.90;;;;;;5047883;28;20655;-67
2022/03/16 06:34:30;;;;;;;29.13;19.75;;;8.50;99.90;;;;;;5052614;28;20221;-67
2022/03/16 06:36:56;;;;;;;22.42;16.98;;;8.50;99.90;;;;;;5052522;28;20229;-67
2022/03/16 06:39:23;;;;;;;25.38;18.48;;;8.50;99.90;;;;;;5052615;28;20679;-67
2022/03/16 06:41:51;;;;;;;32.30;21.42;;;8.50;99.90;;;;;;5052182;28;20231;-66
2022/03/16 06:44:18;;;;;;;25.83;18.90;;;8.60;99.90;;;;;;5052623;28;20709;-67
2022/03/16 06:46:47;;;;;;;32.50;20.42;;;8.60;99.90;;;;;;5052148;28;20221;-66
2022/03/16 06:49:14;;;;;;;27.23;20.48;;;8.60;99.90;;;;;;5052611;28;20682;-66
2022/03/16 06:51:40;;;;;;;27.27;19.92;;;8.60;99.90;;;;;;5051672;28;20221;-66
2022/03/16 06:54:12;;;;;;;27.10;21.75;;;8.60;99.90;;;;;;5052606;28;20224;-66
2022/03/16 06:56:39;;;;;;;27.67;21.48;;;8.70;99.90;;;;;;5041419;28;20226;-66
2022/03/16 06:59:07;;;;;;;27.20;19.75;;;8.70;99.90;;;;;;5044544;28;20897;-66
2022/03/16 07:01:34;;;;;;;25.75;21.00;;;8.70;99.90;;;;;;5054302;28;20225;-66
2022/03/16 07:04:01;;;;;;;32.55;21.27;;;8.70;99.90;;;;;;5055815;28;20220;-66
2022/03/16 07:06:28;;;;;;;28.92;21.33;;;8.80;99.90;;;;;;5056569;28;20232;-66
2022/03/16 07:08:54;;;;;;;28.65;20.27;;;8.80;99.90;;;;;;5043631;28;20512;-67
2022/03/16 07:11:21;;;;;;;24.38;18.33;;;8.80;99.90;;;;;;5034441;28;20973;-67
2022/03/16 07:16:30;;;;;;;25.38;17.88;;;8.90;99.90;;;;;;5035423;28;20306;-68
2022/03/16 07:18:57;;;;;;;21.08;17.13;;;8.90;99.90;;;;;;5035252;28;20234;-66
2022/03/16 07:21:24;;;;;;;36.72;21.70;;;8.90;99.90;;;;;;5035567;28;20221;-66
2022/03/16 07:23:51;;;;;;;23.13;17.48;;;8.90;99.90;;;;;;5050406;28;20599;-66
2022/03/16 07:26:18;;;;;;;23.00;16.52;;;8.90;99.90;;;;;;5056157;28;20231;-66
2022/03/16 07:28:45;;;;;;;29.77;21.20;;;9.00;99.90;;;;;;5055724;28;20221;-66
2022/03/16 07:31:11;;;;;;;24.92;18.73;;;8.90;99.90;;;;;;5055771;28;20225;-66
2022/03/16 07:33:40;;;;;;;29.95;21.10;;;8.90;99.90;;;;;;5055778;28;20232;-66
2022/03/16 07:36:06;;;;;;;25.73;20.38;;;9.00;99.90;;;;;;5054275;28;20231;-66
2022/03/16 07:38:33;;;;;;;25.70;18.77;;;9.00;99.90;;;;;;5055631;28;20228;-66
2022/03/16 07:41:02;;;;;;;28.35;19.17;;;9.00;99.90;;;;;;5055403;28;20683;-66
2022/03/16 07:43:30;;;;;;;21.20;17.52;;;9.00;99.90;;;;;;5047068;28;20217;-66
2022/03/16 07:46:04;;;;;;;34.17;20.90;;;9.10;99.90;;;;;;5055296;28;20343;-66
2022/03/16 07:48:37;;;;;;;30.20;19.27;;;9.10;99.90;;;;;;5055688;28;20224;-66
2022/03/16 07:51:10;;;;;;;29.77;20.13;;;9.10;99.90;;;;;;5055014;28;20225;-66
2022/03/16 07:53:37;;;;;;;19.08;16.65;;;9.00;99.90;;;;;;5055641;28;20221;-66
2022/03/16 07:56:04;;;;;;;17.38;15.55;;;9.00;99.90;;;;;;5055147;28;20225;-66
2022/03/16 07:58:35;;;;;;;19.73;16.52;;;9.00;99.90;;;;;;5055882;28;20255;-66
2022/03/16 08:01:02;;;;;;;17.33;13.38;;;8.90;99.90;;;;;;5055250;28;20231;-66
2022/03/16 08:03:28;;;;;;;22.08;16.20;;;8.90;99.90;;;;;;5055599;28;20244;-66
2022/03/16 08:05:58;;;;;;;21.90;15.60;;;8.90;99.90;;;;;;5054875;28;20225;-66
2022/03/16 08:08:30;;;;;;;23.02;17.40;;;8.90;99.90;;;;;;5055503;28;20225;-67
2022/03/16 08:10:58;;;;;;;21.75;16.63;;;8.80;99.90;;;;;;5054792;28;20312;-67
2022/03/16 08:13:25;;;;;;;25.05;17.13;;;8.70;99.90;;;;;;5054513;28;20663;-66
2022/03/16 08:15:52;;;;;;;30.50;21.85;;;8.70;99.90;;;;;;5052461;28;20223;-66
2022/03/16 08:18:19;;;;;;;31.20;21.95;;;8.70;99.90;;;;;;5054443;28;20553;-67
2022/03/16 08:20:45;;;;;;;33.70;23.98;;;8.60;99.90;;;;;;5054759;28;20225;-66
2022/03/16 08:23:13;;;;;;;33.55;23.98;;;8.60;99.90;;;;;;5054611;28;20968;-66
2022/03/16 08:25:41;;;;;;;41.45;25.23;;;8.60;99.90;;;;;;5048975;28;20715;-67
2022/03/16 08:28:08;;;;;;;30.70;24.13;;;8.60;99.90;;;;;;5054161;28;20229;-66
2022/03/16 08:30:35;;;;;;;36.08;23.10;;;8.60;99.90;;;;;;5054846;28;20220;-66
2022/03/16 08:33:02;;;;;;;34.63;22.67;;;8.70;99.90;;;;;;5050718;28;20221;-66
2022/03/16 08:35:29;;;;;;;31.67;20.88;;;8.60;99.90;;;;;;5054920;28;20221;-66
2022/03/16 08:37:56;;;;;;;28.83;21.38;;;8.70;99.90;;;;;;5040965;28;20698;-66
2022/03/16 08:40:24;;;;;;;30.15;18.67;;;8.70;99.90;;;;;;5054403;28;20225;-66
2022/03/16 08:42:52;;;;;;;23.80;16.52;;;8.70;99.90;;;;;;5053495;28;20217;-66
2022/03/16 08:45:19;;;;;;;24.05;17.90;;;8.60;99.90;;;;;;5052845;28;20227;-66
2022/03/16 08:47:46;;;;;;;20.30;17.08;;;8.60;99.90;;;;;;5053619;28;20221;-66
2022/03/16 08:50:13;;;;;;;25.15;17.40;;;8.50;99.90;;;;;;5053417;28;20680;-66
2022/03/16 08:52:40;;;;;;;24.60;15.60;;;8.50;99.90;;;;;;5054253;28;20578;-66
2022/03/16 08:55:08;;;;;;;23.35;15.30;;;8.50;99.90;;;;;;5054229;28;20259;-66
2022/03/16 08:57:35;;;;;;;22.55;14.75;;;8.60;99.90;;;;;;5054104;28;20216;-66
2022/03/16 09:00:04;;;;;;;21.63;15.52;;;8.60;99.90;;;;;;5054079;28;20323;-66
2022/03/16 09:02:30;;;;;;;17.52;14.25;;;8.70;99.90;;;;;;5054339;28;20311;-66
2022/03/16 09:04:57;;;;;;;17.45;13.95;;;8.70;99.90;;;;;;5054173;28;20294;-66
2022/03/16 09:07:24;;;;;;;19.70;13.88;;;8.80;99.90;;;;;;5054250;28;20225;-65
2022/03/16 09:09:51;;;;;;;18.85;14.70;;;8.80;99.90;;;;;;5053967;28;20224;-66
2022/03/16 09:12:18;;;;;;;20.77;15.95;;;8.90;99.90;;;;;;5054358;28;20248;-66
2022/03/16 09:14:44;;;;;;;19.38;15.13;;;8.90;99.90;;;;;;5054204;28;20225;-66
2022/03/16 09:17:14;;;;;;;17.10;13.90;;;8.90;99.90;;;;;;5053839;28;20232;-66
2022/03/16 09:19:41;;;;;;;16.70;12.43;;;8.90;99.90;;;;;;5053967;28;20225;-66
2022/03/16 09:22:08;;;;;;;17.20;14.38;;;8.90;99.90;;;;;;5053388;28;20220;-66
2022/03/16 09:24:35;;;;;;;17.80;13.82;;;9.00;99.90;;;;;;5052954;28;20217;-66
2022/03/16 09:27:02;;;;;;;20.38;16.13;;;9.00;99.90;;;;;;5053564;28;20231;-67
2022/03/16 09:29:29;;;;;;;20.98;15.43;;;9.00;99.90;;;;;;5053863;28;20225;-65
2022/03/16 09:31:56;;;;;;;19.77;14.73;;;9.10;99.90;;;;;;5053270;28;20229;-66
2022/03/16 09:34:24;;;;;;;20.92;15.77;;;9.10;99.90;;;;;;5053406;28;20217;-66
2022/03/16 09:36:52;;;;;;;16.17;14.27;;;9.20;99.90;;;;;;5053751;28;20564;-66
2022/03/16 09:39:18;;;;;;;15.40;12.55;;;9.20;99.90;;;;;;5053296;28;20216;-65
2022/03/16 09:41:45;;;;;;;15.50;12.30;;;9.30;99.90;;;;;;5053496;28;20591;-66
2022/03/16 09:44:13;;;;;;;17.90;13.90;;;9.30;99.90;;;;;;5052903;28;20229;-66
2022/03/16 09:46:42;;;;;;;17.42;12.80;;;9.40;99.90;;;;;;5053534;28;20217;-65
2022/03/16 09:49:09;;;;;;;17.40;13.70;;;9.40;99.90;;;;;;5053025;28;20286;-66
2022/03/16 09:51:38;;;;;;;16.70;13.60;;;9.40;99.90;;;;;;5052999;28;20221;-66
2022/03/16 09:54:05;;;;;;;14.63;12.27;;;9.40;99.90;;;;;;5052970;28;20627;-66
2022/03/16 09:56:34;;;;;;;14.00;12.55;;;9.50;99.90;;;;;;5053257;28;20216;-66
2022/03/16 09:59:01;;;;;;;15.40;13.40;;;9.50;99.90;;;;;;5052683;28;20679;-66
2022/03/16 10:01:28;;;;;;;19.35;13.02;;;9.60;99.90;;;;;;5053398;28;20233;-66
2022/03/16 10:04:00;;;;;;;16.60;13.30;;;9.60;99.90;;;;;;5053164;28;20239;-66
2022/03/16 10:06:27;;;;;;;14.48;12.20;;;9.70;99.90;;;;;;5053081;28;21040;-66
2022/03/16 10:14:24;;;;;;;16.95;13.27;;;9.70;99.90;;;;;;5053351;28;20633;-66
2022/03/16 10:19:51;;;;;;;16.55;11.70;;;9.80;99.90;;;;;;5052623;28;20228;-66
2022/03/16 10:22:26;;;;;;;16.80;13.70;;;9.80;99.90;;;;;;5052893;28;20236;-66
2022/03/16 10:24:59;;;;;;;15.80;13.70;;;9.90;99.90;;;;;;5052406;28;20311;-66
2022/03/16 10:27:26;;;;;;;15.35;12.13;;;9.90;99.90;;;;;;5053088;28;20712;-66
2022/03/16 10:29:53;;;;;;;14.82;11.32;;;10.00;99.90;;;;;;5052513;28;20987;-66
2022/03/16 10:32:22;;;;;;;20.25;12.05;;;10.00;99.90;;;;;;5052625;28;20229;-66
2022/03/16 10:34:51;;;;;;;14.57;13.07;;;10.10;99.90;;;;;;5052325;28;20240;-66
2022/03/16 10:37:21;;;;;;;12.90;11.50;;;10.20;99.90;;;;;;5052553;28;20237;-66
2022/03/16 10:39:50;;;;;;;16.45;12.93;;;10.30;99.90;;;;;;5052291;28;20687;-66
2022/03/16 10:47:59;;;;;;;14.82;11.88;;;10.30;99.90;;;;;;5052510;28;20248;-66
2022/03/16 10:50:26;;;;;;;13.60;11.50;;;10.30;99.90;;;;;;5052389;28;20312;-66
2022/03/16 10:52:54;;;;;;;14.05;11.63;;;10.30;99.90;;;;;;5052011;28;20229;-66
2022/03/16 10:55:21;;;;;;;13.50;12.05;;;10.40;99.90;;;;;;5052648;28;20220;-66
2022/03/16 10:57:50;;;;;;;12.70;10.65;;;10.40;99.90;;;;;;5052030;28;20221;-66
2022/03/16 11:00:18;;;;;;;14.77;12.10;;;10.50;99.90;;;;;;5052393;28;20282;-66
2022/03/16 11:02:47;;;;;;;13.60;11.93;;;10.60;99.90;;;;;;5052179;28;20231;-66
2022/03/16 11:05:18;;;;;;;14.07;11.07;;;10.60;99.90;;;;;;5052645;28;20420;-66
2022/03/16 11:07:48;;;;;;;16.63;12.05;;;10.60;99.90;;;;;;5051805;28;20694;-66
2022/03/16 11:10:15;;;;;;;15.68;12.05;;;10.70;99.90;;;;;;5052223;28;20224;-67
2022/03/16 11:15:28;;;;;;;12.52;10.10;;;10.80;99.90;;;;;;5052518;28;20228;-66
2022/03/16 11:17:55;;;;;;;13.52;10.27;;;10.80;99.90;;;;;;5052058;28;20233;-66
2022/03/16 11:20:23;;;;;;;14.55;11.15;;;10.90;99.90;;;;;;5052369;28;20579;-66
2022/03/16 11:25:59;;;;;;;13.07;11.73;;;10.80;99.90;;;;;;5052380;28;20227;-67
2022/03/16 11:28:39;;;;;;;12.23;10.40;;;10.80;99.90;;;;;;5052381;28;20224;-67
2022/03/16 11:31:09;;;;;;;13.38;10.38;;;10.80;99.90;;;;;;5052119;28;20229;-66
2022/03/16 11:33:48;;;;;;;14.00;9.98;;;10.70;99.90;;;;;;5051608;28;20229;-67
2022/03/16 11:36:30;;;;;;;11.93;9.75;;;10.70;99.90;;;;;;5052205;28;20233;-67
2022/03/16 11:38:58;;;;;;;13.80;10.73;;;10.60;99.90;;;;;;5051729;28;20221;-67
2022/03/16 11:41:29;;;;;;;13.38;10.57;;;10.60;99.90;;;;;;5051991;28;20699;-67
2022/03/16 11:44:01;;;;;;;13.20;9.85;;;10.60;99.90;;;;;;5051621;28;20228;-67
2022/03/16 11:46:31;;;;;;;13.57;11.57;;;10.60;99.90;;;;;;5051927;28;20221;-67
2022/03/16 11:49:02;;;;;;;13.18;10.40;;;10.60;99.90;;;;;;5055575;28;20252;-67
2022/03/16 11:51:29;;;;;;;12.85;11.32;;;10.60;99.90;;;;;;5055632;28;20610;-67
2022/03/16 11:54:13;;;;;;;12.63;10.95;;;10.60;99.90;;;;;;5055045;28;20679;-67
2022/03/16 11:56:53;;;;;;;12.68;10.25;;;10.60;99.90;;;;;;5055107;28;20241;-67
2022/03/16 11:59:32;;;;;;;14.20;11.40;;;10.70;99.90;;;;;;5055457;28;20653;-66
2022/03/16 12:02:28;;;;;;;14.35;12.85;;;10.70;99.90;;;;;;5055482;28;20232;-66
2022/03/16 12:05:02;;;;;;;14.20;11.05;;;10.70;99.90;;;;;;5051480;28;20239;-66
2022/03/16 12:07:35;;;;;;;13.20;10.18;;;10.80;99.90;;;;;;5055403;28;20240;-66
2022/03/16 12:10:10;;;;;;;14.32;11.32;;;10.80;99.90;;;;;;5054907;28;20276;-66
2022/03/16 12:12:54;;;;;;;13.25;11.52;;;10.90;99.90;;;;;;5055206;28;20240;-66
2022/03/16 12:15:30;;;;;;;13.73;11.13;;;10.90;99.90;;;;;;5055350;28;20220;-66
2022/03/16 12:18:34;;;;;;;17.08;11.50;;;11.00;99.90;;;;;;5055154;28;20286;-66
2022/03/16 12:21:11;;;;;;;14.85;12.80;;;11.00;99.90;;;;;;5054938;28;20235;-66
2022/03/16 12:23:58;;;;;;;15.60;11.98;;;11.00;99.90;;;;;;5054922;28;20710;-66
2022/03/16 12:26:27;;;;;;;19.52;13.70;;;11.00;99.90;;;;;;5035069;28;20635;-67
2022/03/16 12:29:08;;;;;;;18.30;13.60;;;11.00;99.90;;;;;;5035188;28;20229;-66
2022/03/16 12:31:38;;;;;;;21.85;14.05;;;11.10;99.90;;;;;;5034939;28;20226;-66
2022/03/16 12:34:07;;;;;;;16.77;12.63;;;11.10;99.90;;;;;;5035091;28;20781;-66
2022/03/16 12:36:36;;;;;;;20.65;14.07;;;11.20;99.90;;;;;;5034486;28;20225;-66
2022/03/16 12:39:05;;;;;;;22.58;14.65;;;11.20;99.90;;;;;;5035078;28;20544;-67
2022/03/16 12:44:19;;;;;;;25.90;16.48;;;11.30;99.90;;;;;;5034545;28;20240;-66
2022/03/16 12:46:57;;;;;;;26.70;16.27;;;11.30;99.90;;;;;;5034906;28;20563;-66
2022/03/16 12:49:26;;;;;;;23.92;17.80;;;11.40;99.90;;;;;;5034296;28;20630;-66
2022/03/16 12:51:54;;;;;;;29.45;17.90;;;11.40;99.90;;;;;;5034646;28;20234;-66
2022/03/16 12:54:27;;;;;;;24.52;15.85;;;11.50;99.90;;;;;;5034104;28;20548;-66
2022/03/16 12:56:55;;;;;;;25.65;18.38;;;11.50;99.90;;;;;;5052427;28;20232;-66
2022/03/16 12:59:24;;;;;;;26.45;17.58;;;11.60;99.90;;;;;;5054052;28;20221;-66
2022/03/16 13:01:52;;;;;;;34.75;19.15;;;11.70;99.90;;;;;;5054503;28;20683;-66
2022/03/16 13:04:20;;;;;;;32.30;19.70;;;11.70;99.90;;;;;;5053863;28;20225;-66